Time;durP1;ratioP1;P1;durP2;ratioP2;P2;SDS_P1;SDS_P2;PMS_P1;PMS_P2;Temp;Humidity;BMP_temperature;BMP_pressure;BME280_temperature;BME280_humidity;BME280_pressure;Samples;Min_cycle;Max_cycle;Signal;HPM_P1;HPM_P2
2023/10/02 00:02:05;;;;;;;18.37;5.37;;;;;;;14.63;55.46;100905.12;126823;1098;102081;-75
2023/10/02 00:04:37;;;;;;;17.27;5.33;;;;;;;14.62;55.09;100909.52;126050;1099;104179;-76
2023/10/02 00:07:08;;;;;;;17.07;5.60;;;;;;;14.63;55.30;100907.76;126092;1099;104165;-75
2023/10/02 00:09:42;;;;;;;16.77;5.47;;;;;;;14.64;55.27;100904.27;126089;1098;104218;-75
2023/10/02 00:12:13;;;;;;;20.80;5.97;;;;;;;14.64;55.29;100909.56;126159;1099;102066;-75
2023/10/02 00:14:45;;;;;;;15.93;6.00;;;;;;;14.66;55.21;100905.20;125417;1099;102527;-75
2023/10/02 00:17:18;;;;;;;17.60;5.73;;;;;;;14.68;55.20;100907.03;126220;1098;101810;-75
2023/10/02 00:19:57;;;;;;;17.13;5.67;;;;;;;14.68;54.78;100901.75;126114;1099;104143;-76
2023/10/02 00:22:41;;;;;;;19.33;6.10;;;;;;;14.70;55.22;100905.31;125443;1099;104211;-76
2023/10/02 00:25:16;;;;;;;17.07;5.80;;;;;;;14.70;54.97;100904.43;126263;1099;104271;-75
2023/10/02 00:27:50;;;;;;;20.90;6.60;;;;;;;14.69;54.89;100908.83;126047;1099;104377;-76
2023/10/02 00:30:30;;;;;;;17.77;5.60;;;;;;;14.68;55.10;100914.08;126191;1099;102077;-76
2023/10/02 00:33:02;;;;;;;22.87;6.20;;;;;;;14.66;54.57;100914.04;125936;1099;104227;-76
2023/10/02 00:35:50;;;;;;;21.70;6.40;;;;;;;14.65;54.73;100906.07;126137;1099;104130;-76
2023/10/02 00:38:22;;;;;;;21.17;6.63;;;;;;;14.65;54.60;100911.36;126054;1099;104201;-76
2023/10/02 00:40:53;;;;;;;17.10;6.10;;;;;;;14.64;54.58;100913.08;125402;1099;102174;-75
2023/10/02 00:43:45;;;;;;;22.30;5.97;;;;;;;14.63;55.66;100913.05;125402;1099;104233;-75
2023/10/02 00:46:23;;;;;;;18.10;6.00;;;;;;;14.63;55.02;100915.69;126055;1098;104214;-76
2023/10/02 00:48:54;;;;;;;18.37;6.00;;;;;;;14.61;54.84;100912.12;125997;1099;102211;-75
2023/10/02 00:51:27;;;;;;;19.30;6.30;;;;;;;14.61;55.65;100906.84;125805;1099;104291;-76
2023/10/02 00:54:23;;;;;;;17.43;6.20;;;;;;;14.59;55.24;100914.69;125206;1099;108199;-76
2023/10/02 00:56:51;;;;;;;21.50;5.80;;;;;;;14.57;55.66;100911.13;125969;1099;104140;-76
2023/10/02 00:59:23;;;;;;;18.37;5.85;;;;;;;14.56;54.83;100899.64;125579;1099;104208;-76
2023/10/02 01:01:56;;;;;;;16.70;5.80;;;;;;;14.58;55.01;100906.72;125781;1099;104176;-75
2023/10/02 01:04:30;;;;;;;19.07;5.78;;;;;;;14.58;55.16;100914.64;125795;1099;117753;-75
2023/10/02 01:07:11;;;;;;;18.73;5.60;;;;;;;14.55;54.95;100912.81;125720;1099;104086;-76
2023/10/02 01:10:06;;;;;;;19.00;6.23;;;;;;;14.55;55.64;100919.00;125220;1099;102122;-76
2023/10/02 01:12:43;;;;;;;18.10;5.50;;;;;;;14.54;54.87;100917.20;126601;1098;104193;-76
2023/10/02 01:15:14;;;;;;;20.57;5.83;;;;;;;14.54;55.85;100911.92;125921;1099;102341;-76
2023/10/02 01:17:47;;;;;;;18.47;5.93;;;;;;;14.53;56.08;100917.17;125711;1098;102037;-76
2023/10/02 01:20:32;;;;;;;19.73;6.20;;;;;;;14.51;55.79;100914.48;125138;1099;101886;-76
2023/10/02 01:23:16;;;;;;;16.23;5.40;;;;;;;14.51;55.08;100910.96;125246;1099;102131;-76
2023/10/02 01:25:49;;;;;;;18.50;6.20;;;;;;;14.52;55.36;100912.73;126052;1099;102118;-76
2023/10/02 01:28:25;;;;;;;19.98;5.35;;;;;;;14.51;56.05;100916.24;125709;1099;104188;-76
2023/10/02 01:30:56;;;;;;;19.43;5.83;;;;;;;14.49;55.39;100917.92;125142;1099;102180;-76
2023/10/02 01:33:32;;;;;;;16.40;5.43;;;;;;;14.47;56.38;100917.89;125658;1099;104181;-75
2023/10/02 01:36:06;;;;;;;14.05;5.35;;;;;;;14.45;56.33;100929.28;126007;1098;104176;-77
2023/10/02 01:38:41;;;;;;;20.63;5.33;;;;;;;14.42;55.45;100916.00;126068;1099;102035;-75
2023/10/02 01:41:14;;;;;;;18.27;5.73;;;;;;;14.39;55.68;100925.60;125099;1099;101943;-76
2023/10/02 01:43:49;;;;;;;15.85;5.37;;;;;;;14.37;56.24;100923.80;125577;1099;104204;-76
2023/10/02 01:46:22;;;;;;;19.77;6.03;;;;;;;14.34;56.47;100929.88;125394;1099;104368;-77
2023/10/02 01:48:54;;;;;;;19.90;5.77;;;;;;;14.32;55.89;100922.75;125579;1099;101912;-76
2023/10/02 01:51:31;;;;;;;18.57;6.20;;;;;;;14.30;56.30;100924.47;126004;1099;101797;-76
2023/10/02 01:54:15;;;;;;;19.53;6.63;;;;;;;14.28;57.04;100927.06;125453;1099;101869;-76
2023/10/02 01:56:47;;;;;;;21.85;7.12;;;;;;;14.27;56.86;100929.66;125485;1099;101990;-76
2023/10/02 01:59:19;;;;;;;18.70;6.20;;;;;;;14.25;56.58;100928.73;124878;1099;104163;-76
2023/10/02 02:01:53;;;;;;;16.70;6.03;;;;;;;14.23;57.52;100933.97;125653;1099;101900;-77
2023/10/02 02:04:27;;;;;;;17.10;6.03;;;;;;;14.21;56.96;100933.05;125759;1099;104270;-76
2023/10/02 02:07:00;;;;;;;19.07;6.17;;;;;;;14.22;56.98;100933.93;125099;1099;104230;-76
2023/10/02 02:09:33;;;;;;;22.05;6.75;;;;;;;14.20;57.00;100929.49;125211;1098;102099;-76
2023/10/02 02:12:07;;;;;;;16.47;6.07;;;;;;;14.19;57.48;100940.00;125090;1099;104163;-76
2023/10/02 02:14:49;;;;;;;19.60;6.27;;;;;;;14.19;57.83;100934.73;125659;1099;104322;-77
2023/10/02 02:17:22;;;;;;;16.30;6.15;;;;;;;14.19;57.20;100937.37;125085;1099;101909;-76
2023/10/02 02:19:59;;;;;;;21.05;7.25;;;;;;;14.18;57.85;100935.60;125891;1099;101868;-76
2023/10/02 02:22:32;;;;;;;18.43;6.57;;;;;;;14.17;57.59;100931.16;126536;1098;102071;-76
2023/10/02 02:25:04;;;;;;;14.77;6.27;;;;;;;14.18;57.84;100940.88;125828;1099;104219;-76
2023/10/02 02:27:36;;;;;;;18.77;6.23;;;;;;;14.17;58.36;100936.44;125771;1099;104183;-76
2023/10/02 02:30:10;;;;;;;18.43;6.67;;;;;;;14.17;57.56;100939.08;125743;1099;102176;-76
2023/10/02 02:32:44;;;;;;;;;;;;;;;14.16;58.37;100945.20;125666;1099;101839;-76
2023/10/02 02:35:15;;;;;;;21.17;6.57;;;;;;;14.15;57.54;100944.31;125364;1099;104211;-77
2023/10/02 02:37:46;;;;;;;20.50;6.13;;;;;;;14.16;57.31;100945.20;125696;1099;104264;-76
2023/10/02 02:40:25;;;;;;;18.33;6.37;;;;;;;14.16;58.09;100950.47;125737;1098;104245;-75
2023/10/02 02:42:58;;;;;;;16.93;6.30;;;;;;;14.16;58.47;100956.67;125177;1099;104230;-80
2023/10/02 02:45:29;;;;;;;17.92;5.87;;;;;;;14.16;57.87;100955.75;125472;1099;104224;-76
2023/10/02 02:48:04;;;;;;;17.33;5.90;;;;;;;14.14;57.73;100960.11;125602;1098;102015;-76
2023/10/02 02:50:40;;;;;;;19.20;5.93;;;;;;;14.12;58.38;100952.14;125651;1099;104274;-76
2023/10/02 02:53:23;;;;;;;17.93;6.00;;;;;;;14.11;58.04;100952.98;125727;1099;104128;-76
2023/10/02 02:56:18;;;;;;;21.97;6.37;;;;;;;14.10;58.47;100947.66;125808;1098;103277;-76
2023/10/02 02:58:50;;;;;;;17.30;5.50;;;;;;;14.07;57.77;100945.85;125847;1098;102071;-76
2023/10/02 03:01:23;;;;;;;18.97;5.37;;;;;;;14.06;58.28;100959.00;125656;1099;104424;-76
2023/10/02 03:03:55;;;;;;;16.10;5.33;;;;;;;14.05;58.02;100951.92;125934;1099;104223;-76
2023/10/02 03:06:27;;;;;;;19.63;5.77;;;;;;;14.05;58.29;100959.84;125974;1099;104239;-76
2023/10/02 03:08:59;;;;;;;16.90;5.20;;;;;;;14.05;58.79;100962.48;125268;1099;104130;-75
2023/10/02 03:11:32;;;;;;;24.43;5.77;;;;;;;14.04;58.59;100958.95;125796;1098;104242;-76
2023/10/02 03:14:13;;;;;;;16.45;4.72;;;;;;;14.04;58.33;100964.23;126043;1099;102000;-76
2023/10/02 03:16:45;;;;;;;14.27;4.70;;;;;;;14.02;58.60;100966.83;125744;1099;102115;-76
2023/10/02 03:19:16;;;;;;;18.27;5.30;;;;;;;13.99;59.21;100957.91;126319;1098;101987;-76
2023/10/02 03:21:48;;;;;;;19.33;4.43;;;;;;;13.97;58.76;100957.86;125937;1098;104211;-75
2023/10/02 03:24:21;;;;;;;19.95;5.35;;;;;;;13.96;58.75;100960.45;125696;1099;101773;-75
2023/10/02 03:26:56;;;;;;;14.10;4.60;;;;;;;13.92;58.98;100959.48;125240;1099;104227;-75
2023/10/02 03:29:30;;;;;;;15.70;5.00;;;;;;;13.91;59.42;100962.95;125789;1099;102391;-75
2023/10/02 03:32:01;;;;;;;21.73;4.70;;;;;;;13.90;59.79;100965.55;126561;1098;104133;-75
2023/10/02 03:34:33;;;;;;;14.93;4.80;;;;;;;13.91;59.66;100972.63;125028;1099;104166;-75
2023/10/02 03:37:13;;;;;;;19.13;6.23;;;;;;;13.89;59.11;100964.66;125699;1098;104073;-75
2023/10/02 03:39:59;;;;;;;18.13;4.67;;;;;;;13.88;60.18;100965.50;126119;1099;102034;-75
2023/10/02 03:42:32;;;;;;;21.33;5.33;;;;;;;13.89;59.63;100964.66;126063;1099;104178;-75
2023/10/02 03:45:04;;;;;;;23.47;5.77;;;;;;;13.89;59.77;100969.06;125991;1099;101798;-75
2023/10/02 03:47:36;;;;;;;26.90;5.60;;;;;;;13.87;60.11;100971.66;125065;1099;104272;-77
2023/10/02 03:50:12;;;;;;;17.97;5.60;;;;;;;13.84;60.14;100976.84;125647;1099;104555;-75
2023/10/02 03:52:45;;;;;;;16.73;4.70;;;;;;;13.80;59.83;100986.37;125829;1099;104211;-75
2023/10/02 03:55:19;;;;;;;15.50;4.75;;;;;;;13.79;60.33;100984.61;125770;1099;104172;-75
2023/10/02 03:57:54;;;;;;;18.17;5.00;;;;;;;13.77;60.15;100986.28;125728;1099;104728;-76
2023/10/02 04:00:36;;;;;;;15.17;4.43;;;;;;;13.77;60.70;100985.40;125972;1098;102274;-75
2023/10/02 04:03:08;;;;;;;19.23;5.17;;;;;;;13.78;60.35;100981.92;126017;1099;101926;-76
2023/10/02 04:05:43;;;;;;;22.60;5.70;;;;;;;13.78;59.94;100988.08;125947;1099;104243;-75
2023/10/02 04:08:18;;;;;;;24.47;6.03;;;;;;;13.79;60.49;100988.97;125972;1098;101948;-75
2023/10/02 04:10:55;;;;;;;21.67;5.67;;;;;;;13.79;60.38;100988.97;125781;1098;104176;-75
2023/10/02 04:13:31;;;;;;;19.30;5.90;;;;;;;13.78;60.62;100995.11;125821;1099;101887;-75
2023/10/02 04:18:58;;;;;;;19.73;5.50;;;;;;;13.77;60.82;101003.86;125687;1099;102026;-75
2023/10/02 04:21:33;;;;;;;16.23;5.70;;;;;;;13.77;61.11;100994.20;125540;1099;101942;-75
2023/10/02 04:24:09;;;;;;;22.50;5.83;;;;;;;13.79;61.17;101005.71;125744;1098;101827;-75
2023/10/02 04:26:44;;;;;;;18.03;5.93;;;;;;;13.78;60.82;101008.30;125670;1099;102410;-74
2023/10/02 04:29:26;;;;;;;23.23;5.83;;;;;;;13.78;61.06;101008.30;126246;1099;104338;-75
2023/10/02 04:32:14;;;;;;;17.70;5.40;;;;;;;13.80;61.36;101004.84;126219;1098;104172;-75
2023/10/02 04:34:56;;;;;;;24.27;6.27;;;;;;;13.82;61.23;101004.89;125836;1099;104185;-77
2023/10/02 04:37:31;;;;;;;17.50;5.90;;;;;;;13.83;61.41;101012.84;126578;1099;102080;-76
2023/10/02 04:40:22;;;;;;;24.03;7.00;;;;;;;13.83;61.97;101019.87;125875;1098;104175;-76
2023/10/02 04:43:15;;;;;;;23.30;5.77;;;;;;;13.81;61.87;101013.67;127386;1098;101733;-77
2023/10/02 04:45:47;;;;;;;19.33;5.67;;;;;;;13.79;62.61;101026.81;126116;1099;104287;-76
2023/10/02 04:48:25;;;;;;;20.57;5.73;;;;;;;13.77;62.29;101023.20;125881;1099;102962;-73
2023/10/02 04:51:03;;;;;;;19.87;6.00;;;;;;;13.77;61.97;101025.84;126156;1099;101995;-76
2023/10/02 04:53:35;;;;;;;15.93;5.43;;;;;;;13.79;62.78;101028.53;125782;1099;101923;-75
2023/10/02 04:56:21;;;;;;;21.17;5.03;;;;;;;13.81;62.25;101032.13;125031;1099;104258;-74
2023/10/02 04:58:57;;;;;;;17.90;5.27;;;;;;;13.82;62.38;101025.98;125014;1098;118259;-75
2023/10/02 05:01:41;;;;;;;20.23;5.10;;;;;;;13.83;62.38;101028.67;125121;1099;102083;-73
2023/10/02 05:04:18;;;;;;;;;;;;;;;13.86;62.92;101032.28;124889;1099;104242;-72
2023/10/02 05:06:59;;;;;;;26.17;5.80;;;;;;;13.87;62.69;101034.05;124296;1099;104223;-74
2023/10/02 05:09:38;;;;;;;20.67;5.43;;;;;;;13.89;62.44;101035.01;124929;1099;102044;-75
2023/10/02 05:12:22;;;;;;;20.33;6.00;;;;;;;13.91;62.51;101041.22;125155;1099;102062;-76
2023/10/02 05:14:55;;;;;;;13.77;4.90;;;;;;;13.91;62.63;101047.37;125787;1099;104230;-77
2023/10/02 05:17:46;;;;;;;20.23;5.30;;;;;;;13.93;62.35;101045.70;125646;1099;104194;-76
2023/10/02 05:20:17;;;;;;;17.83;4.50;;;;;;;13.93;62.92;101045.70;125002;1099;101926;-75
2023/10/02 05:22:58;;;;;;;19.23;5.57;;;;;;;13.96;62.71;101051.08;125018;1098;104239;-76
2023/10/02 05:25:30;;;;;;;16.53;5.00;;;;;;;13.98;63.14;101051.13;124779;1099;104163;-72
2023/10/02 05:28:05;;;;;;;17.40;4.90;;;;;;;14.00;62.32;101057.33;124986;1098;104057;-76
2023/10/02 05:30:43;;;;;;;17.90;5.20;;;;;;;14.06;63.05;101054.00;125023;1099;101929;-77
2023/10/02 05:33:36;;;;;;;15.70;5.00;;;;;;;14.12;62.27;101065.62;125145;1099;104245;-74
2023/10/02 05:36:09;;;;;;;20.97;5.07;;;;;;;14.17;62.83;101068.41;124843;1099;104201;-77
2023/10/02 05:39:04;;;;;;;19.60;5.00;;;;;;;14.19;62.57;101069.33;124946;1099;104299;-77
2023/10/02 05:41:41;;;;;;;17.40;5.23;;;;;;;14.21;63.04;101072.94;125592;1099;104284;-79
2023/10/02 05:44:23;;;;;;;17.87;5.37;;;;;;;14.20;62.66;101077.30;125444;1099;102335;-75
2023/10/02 05:47:04;;;;;;;17.60;4.60;;;;;;;14.19;62.29;101086.08;125380;1099;104650;-78
2023/10/02 05:49:53;;;;;;;14.97;4.80;;;;;;;14.18;62.44;101084.28;125263;1099;102239;-76
2023/10/02 05:52:27;;;;;;;17.70;5.00;;;;;;;14.18;62.93;101089.56;124830;1099;104814;-82
2023/10/02 05:55:00;;;;;;;16.73;5.10;;;;;;;14.19;63.31;101090.45;125005;1099;104271;-76
2023/10/02 05:57:34;;;;;;;14.70;4.53;;;;;;;14.23;62.82;101092.34;124722;1099;104207;-77
2023/10/02 06:00:16;;;;;;;13.95;4.25;;;;;;;14.27;63.12;101094.20;125343;1098;104220;-78
2023/10/02 06:02:58;;;;;;;17.53;5.30;;;;;;;14.35;62.84;101090.07;125288;1096;104217;-76
2023/10/02 06:05:29;;;;;;;13.87;4.80;;;;;;;14.45;62.74;101098.27;125174;1099;104284;-74
2023/10/02 06:08:01;;;;;;;15.77;4.77;;;;;;;14.51;63.56;101094.05;124517;1099;104242;-73
2023/10/02 06:10:34;;;;;;;17.27;5.20;;;;;;;14.58;63.55;101100.39;125857;1099;104172;-78
2023/10/02 06:13:13;;;;;;;17.67;4.75;;;;;;;14.65;62.49;101096.23;125479;1099;104194;-77
2023/10/02 06:15:46;;;;;;;19.13;5.30;;;;;;;14.71;63.38;101096.41;125517;1099;101865;-79
2023/10/02 06:18:27;;;;;;;16.17;4.63;;;;;;;14.78;63.19;101092.19;124791;1099;104235;-78
2023/10/02 06:21:00;;;;;;;18.83;4.77;;;;;;;14.83;62.88;101093.20;125290;1098;107982;-79
2023/10/02 06:23:38;;;;;;;16.97;5.00;;;;;;;14.88;62.94;101103.05;125347;1099;102125;-80
2023/10/02 06:26:14;;;;;;;17.03;4.60;;;;;;;14.93;62.20;101087.33;124755;1099;101909;-79
2023/10/02 06:29:13;;;;;;;15.90;4.97;;;;;;;15.00;62.43;101089.27;125568;1099;101925;-79
2023/10/02 06:31:51;;;;;;;15.03;5.23;;;;;;;15.07;62.20;101096.52;126835;1099;117896;-76
2023/10/02 06:34:39;;;;;;;14.47;4.63;;;;;;;15.15;62.20;101104.66;127355;1098;101638;-77
2023/10/02 06:37:16;;;;;;;18.50;5.07;;;;;;;15.23;62.02;101100.45;126019;1099;104236;-77
2023/10/02 06:40:04;;;;;;;16.17;4.90;;;;;;;15.28;61.87;101100.58;125695;1099;101855;-81
2023/10/02 06:42:50;;;;;;;16.60;4.50;;;;;;;15.38;62.69;101097.33;125684;1099;102030;-82
2023/10/02 06:46:06;;;;;;;14.63;4.77;;;;;;;15.47;61.74;101094.00;125944;1098;101972;-80
2023/10/02 06:52:15;;;;;;;17.27;4.90;;;;;;;15.79;62.12;101088.66;124849;1102;101857;-77
2023/10/02 06:54:56;;;;;;;13.90;4.57;;;;;;;15.94;61.95;101101.33;125354;1105;104310;-79
2023/10/02 07:01:33;;;;;;;17.50;5.13;;;;;;;16.31;61.73;101103.08;125324;1105;102518;-81
2023/10/02 07:04:48;;;;;;;17.67;5.43;;;;;;;16.46;61.14;101105.15;125022;1105;104198;-79
2023/10/02 07:11:28;;;;;;;19.17;5.03;;;;;;;16.72;60.25;101102.16;124680;1109;102123;-77
2023/10/02 07:14:35;;;;;;;16.50;4.70;;;;;;;16.87;59.74;101106.89;125471;1109;101703;-81
2023/10/02 07:18:00;;;;;;;17.60;4.03;;;;;;;17.00;58.96;101097.41;124198;1109;104016;-78
2023/10/02 07:21:03;;;;;;;;;;;;;;;;;;;;;
2023/10/02 07:24:39;;;;;;;;;;;;;;;;;;;;;
2023/10/02 07:27:42;;;;;;;13.53;3.83;;;;;;;17.23;57.59;101104.05;125084;1105;104197;-78
2023/10/02 07:30:33;;;;;;;11.48;3.92;;;;;;;17.31;57.56;101105.92;124515;1102;104201;-79
2023/10/02 07:33:10;;;;;;;16.53;4.33;;;;;;;17.37;56.89;101116.64;124831;1102;104226;-78
2023/10/02 07:35:52;;;;;;;12.60;4.00;;;;;;;17.42;57.40;101120.27;126334;1102;103817;-81
2023/10/02 07:38:30;;;;;;;15.80;4.63;;;;;;;17.51;57.35;101099.20;125867;1101;101877;-77
2023/10/02 07:41:35;;;;;;;12.33;3.80;;;;;;;17.54;56.35;101107.20;125445;1102;102182;-80
2023/10/02 07:44:08;;;;;;;16.03;4.37;;;;;;;17.59;56.11;101104.63;124860;1102;104236;-79
2023/10/02 07:47:06;;;;;;;14.00;4.00;;;;;;;17.65;55.81;101107.39;126054;1101;101967;-80
2023/10/02 07:49:38;;;;;;;16.17;4.10;;;;;;;17.69;55.89;101117.20;125528;1102;103702;-81
2023/10/02 07:52:13;;;;;;;12.80;3.93;;;;;;;17.69;55.57;101116.31;126096;1101;102108;-83
2023/10/02 07:54:58;;;;;;;15.90;4.13;;;;;;;17.76;55.54;101116.44;126775;1101;109278;-80
2023/10/02 07:57:44;;;;;;;11.23;3.57;;;;;;;17.83;53.62;101122.73;125896;1101;101971;-83
2023/10/02 08:00:37;;;;;;;13.03;3.60;;;;;;;17.88;54.47;101123.72;125394;1102;101999;-84
2023/10/02 08:03:36;;;;;;;14.17;4.30;;;;;;;17.97;54.25;101141.57;126255;1101;104198;-83
2023/10/02 08:06:33;;;;;;;12.93;3.90;;;;;;;18.05;54.45;101128.41;125839;1102;101836;-82
2023/10/02 08:12:29;;;;;;;10.60;3.73;;;;;;;18.17;53.85;101127.67;124691;1105;102076;-81
2023/10/02 08:15:26;;;;;;;14.03;4.30;;;;;;;18.17;53.24;101130.33;124961;1105;103655;-81
2023/10/02 08:18:16;;;;;;;9.73;3.57;;;;;;;18.26;53.32;101125.16;125265;1101;101890;-81
2023/10/02 08:20:49;;;;;;;12.73;3.67;;;;;;;18.40;53.08;101130.66;125727;1102;104059;-83
2023/10/02 08:23:24;;;;;;;10.73;3.77;;;;;;;18.50;53.01;101128.16;125461;1102;101810;-81
2023/10/02 08:26:05;;;;;;;12.30;3.80;;;;;;;18.61;53.06;101112.34;125427;1102;101949;-79
2023/10/02 08:28:45;;;;;;;12.13;3.77;;;;;;;18.69;52.68;101126.61;124997;1102;104172;-85
2023/10/02 08:31:27;;;;;;;11.80;3.60;;;;;;;18.75;51.64;101128.47;125667;1102;104153;-81
2023/10/02 08:34:32;;;;;;;12.10;3.87;;;;;;;18.73;52.05;101127.56;125556;1102;102158;-85
2023/10/02 08:37:12;;;;;;;11.50;3.77;;;;;;;18.80;52.33;101117.89;126273;1101;104204;-84
2023/10/02 08:40:09;;;;;;;13.07;3.87;;;;;;;18.75;51.38;101124.92;126281;1101;101777;-84
2023/10/02 08:43:15;;;;;;;16.17;4.00;;;;;;;18.80;51.34;101129.41;125259;1102;104226;-83
2023/10/02 08:46:35;;;;;;;14.73;3.58;;;;;;;18.87;51.43;101122.45;126272;1102;101927;-83
2023/10/02 08:49:14;;;;;;;12.83;3.50;;;;;;;18.90;50.99;101124.23;125498;1101;101771;-80
2023/10/02 08:52:03;;;;;;;12.57;4.30;;;;;;;18.98;51.48;101134.09;125607;1102;101919;-82
2023/10/02 08:54:55;;;;;;;14.83;3.70;;;;;;;19.00;50.89;101108.39;125458;1102;104172;-79
2023/10/02 08:57:46;;;;;;;11.57;3.30;;;;;;;18.98;50.22;101123.45;125247;1102;102605;-81
2023/10/02 09:01:01;;;;;;;11.10;3.57;;;;;;;18.94;49.97;101123.40;127005;1101;101590;-81
2023/10/02 09:03:41;;;;;;;10.10;3.37;;;;;;;19.11;49.52;101112.95;125803;1102;104581;-81
2023/10/02 09:06:49;;;;;;;9.43;3.37;;;;;;;19.22;49.39;101120.14;126208;1101;109173;-75
2023/10/02 09:09:44;;;;;;;7.50;3.07;;;;;;;19.17;49.18;101111.23;126081;1102;101827;-81
2023/10/02 09:12:48;;;;;;;13.77;3.57;;;;;;;19.20;49.55;101121.02;125814;1102;104179;-83
2023/10/02 09:15:44;;;;;;;13.63;4.03;;;;;;;19.16;49.19;101127.17;126414;1101;104057;-87
2023/10/02 09:19:07;;;;;;;10.97;3.57;;;;;;;19.14;49.29;101126.28;126414;1100;102109;-82
2023/10/02 09:21:47;;;;;;;10.13;3.47;;;;;;;19.17;49.21;101123.66;125692;1102;101855;-82
2023/10/02 09:24:55;;;;;;;9.13;3.63;;;;;;;19.28;47.49;101121.10;125953;1100;104165;-81
2023/10/02 09:28:19;;;;;;;12.03;3.70;;;;;;;19.36;47.27;101119.39;125971;1102;118998;-81
2023/10/02 09:31:14;;;;;;;7.87;3.50;;;;;;;19.34;46.79;101115.84;126170;1101;101983;-78
2023/10/02 09:33:54;;;;;;;10.63;3.70;;;;;;;19.42;47.74;101124.78;125067;1102;104198;-80
2023/10/02 09:36:36;;;;;;;9.30;3.20;;;;;;;19.44;47.11;101122.13;125837;1102;101696;-81
2023/10/02 09:42:06;;;;;;;13.63;3.43;;;;;;;19.63;47.48;101120.52;125707;1102;102363;-79
2023/10/02 09:44:45;;;;;;;12.83;3.43;;;;;;;19.72;47.34;101101.95;125140;1102;104079;-81
2023/10/02 09:47:38;;;;;;;12.47;3.63;;;;;;;19.71;46.09;101117.05;125648;1102;101959;-79
2023/10/02 09:53:28;;;;;;;16.03;3.70;;;;;;;19.81;44.88;101115.37;125291;1102;101932;-81
2023/10/02 09:56:11;;;;;;;15.07;3.70;;;;;;;19.85;45.49;101108.28;124906;1100;102083;-79
2023/10/02 09:59:12;;;;;;;11.57;3.43;;;;;;;19.91;44.25;101109.24;125917;1102;108431;-81
2023/10/02 10:11:18;;;;;;;15.67;4.30;;;;;;;19.86;42.94;101112.74;125918;1099;102093;-78
2023/10/02 10:13:59;;;;;;;13.57;3.57;;;;;;;20.00;43.56;101108.39;126482;1098;104335;-80
2023/10/02 10:16:40;;;;;;;9.37;3.80;;;;;;;20.03;40.96;101112.86;124899;1102;104266;-83
2023/10/02 10:19:45;;;;;;;12.97;3.60;;;;;;;19.98;42.44;101099.52;127195;1098;101795;-86
2023/10/02 10:22:50;;;;;;;6.87;3.10;;;;;;;20.09;42.57;101099.58;126295;1102;101687;-86
2023/10/02 10:25:53;;;;;;;9.47;3.47;;;;;;;20.19;42.54;101087.20;127530;1098;102372;-83
2023/10/02 10:28:53;;;;;;;10.53;3.60;;;;;;;20.19;41.66;101079.20;127074;1098;101757;-86
2023/10/02 10:31:33;;;;;;;14.93;3.50;;;;;;;20.31;42.23;101089.05;125838;1102;101760;-84
2023/10/02 10:34:09;;;;;;;12.23;3.90;;;;;;;20.41;41.80;101090.85;126077;1099;104194;-86
2023/10/02 10:36:46;;;;;;;9.20;3.20;;;;;;;20.39;41.67;101085.52;126102;1099;101808;-84
2023/10/02 10:40:17;;;;;;;8.67;3.47;;;;;;;20.41;40.19;101086.44;126670;1098;104201;-80
2023/10/02 10:43:15;;;;;;;13.70;3.53;;;;;;;20.46;40.40;101071.34;125016;1102;102003;-78
2023/10/02 10:45:48;;;;;;;9.40;3.43;;;;;;;20.50;40.72;101079.35;124777;1099;104840;-80
2023/10/02 10:48:24;;;;;;;9.00;2.97;;;;;;;20.42;41.20;101082.86;124451;1099;104296;-77
2023/10/02 10:51:03;;;;;;;10.10;3.47;;;;;;;20.42;39.84;101074.87;124648;1102;104285;-77
2023/10/02 10:53:41;;;;;;;9.20;3.70;;;;;;;20.44;40.77;101070.45;125058;1102;104283;-79
2023/10/02 10:56:19;;;;;;;15.00;3.40;;;;;;;20.29;38.00;101063.27;126242;1101;101806;-76
2023/10/02 10:59:10;;;;;;;12.87;3.60;;;;;;;20.14;38.76;101072.97;124660;1099;104123;-77
2023/10/02 11:02:09;;;;;;;11.60;3.57;;;;;;;20.02;38.39;101066.66;124416;1099;104217;-80
2023/10/02 11:04:51;;;;;;;13.43;3.80;;;;;;;20.19;39.41;101063.22;124327;1102;101919;-76
2023/10/02 11:14:56;;;;;;;11.53;3.30;;;;;;;20.50;37.48;101077.56;125188;1102;104217;-82
2023/10/02 11:17:55;;;;;;;;;;;;;;;;;;;;;
2023/10/02 11:20:52;;;;;;;13.50;3.80;;;;;;;20.75;37.12;101059.02;125280;1102;101964;-77
2023/10/02 11:23:51;;;;;;;10.57;3.63;;;;;;;20.73;35.52;101064.35;125387;1102;101976;-82
2023/10/02 11:26:28;;;;;;;14.40;3.57;;;;;;;20.58;36.27;101065.15;125101;1102;101933;-78
2023/10/02 11:30:00;;;;;;;15.33;3.77;;;;;;;20.51;35.06;101071.36;126015;1102;102002;-80
2023/10/02 11:33:28;;;;;;;11.17;3.83;;;;;;;20.40;36.15;101051.78;126210;1100;101896;-77
2023/10/02 11:36:12;;;;;;;13.57;3.80;;;;;;;20.48;36.13;101053.57;126955;1102;101752;-79
2023/10/02 11:38:44;;;;;;;9.13;3.90;;;;;;;20.56;35.79;101052.72;125344;1105;102432;-77
2023/10/02 11:41:38;;;;;;;;;;;;;;;;;;;;;
2023/10/02 11:44:48;;;;;;;9.43;3.50;;;;;;;20.64;36.13;101054.53;125924;1102;104175;-81
2023/10/02 11:47:47;;;;;;;9.23;3.60;;;;;;;20.74;35.75;101054.56;125631;1101;104246;-77
2023/10/02 11:50:50;;;;;;;9.67;3.70;;;;;;;20.80;35.34;101049.25;124429;1102;102121;-76
2023/10/02 11:53:37;;;;;;;9.87;3.60;;;;;;;20.79;35.51;101047.48;124159;1102;104309;-76
2023/10/02 11:56:25;;;;;;;10.27;3.70;;;;;;;20.85;36.04;101050.17;124222;1105;104338;-76
2023/10/02 11:59:06;;;;;;;10.13;3.73;;;;;;;20.85;35.38;101043.92;124055;1102;104207;-76
2023/10/02 12:01:43;;;;;;;9.93;3.73;;;;;;;20.80;36.04;101039.49;124245;1102;104299;-77
2023/10/02 12:04:18;;;;;;;14.93;3.97;;;;;;;20.71;35.31;101055.47;124989;1105;101878;-75
2023/10/02 12:06:56;;;;;;;8.97;3.60;;;;;;;20.56;35.90;101052.72;124723;1102;118058;-76
2023/10/02 12:09:34;;;;;;;8.27;3.47;;;;;;;20.39;36.22;101058.86;125752;1102;102005;-80
2023/10/02 12:12:13;;;;;;;10.67;4.10;;;;;;;20.33;36.11;101060.63;126073;1100;104070;-81
2023/10/02 12:14:54;;;;;;;12.40;4.33;;;;;;;20.28;36.58;101057.94;125784;1101;101900;-75
2023/10/02 12:17:32;;;;;;;11.27;3.67;;;;;;;20.20;36.70;101057.89;124318;1102;104175;-74
2023/10/02 12:20:10;;;;;;;15.63;4.13;;;;;;;20.28;36.45;101055.27;125165;1101;104255;-76
2023/10/02 12:22:46;;;;;;;10.50;3.80;;;;;;;20.42;36.56;101058.00;124976;1101;104277;-76
2023/10/02 12:25:28;;;;;;;10.20;3.70;;;;;;;20.57;37.17;101052.72;124838;1105;101974;-77
2023/10/02 12:28:20;;;;;;;9.70;3.50;;;;;;;20.65;35.70;101052.78;125720;1102;101942;-78
2023/10/02 12:30:59;;;;;;;12.43;4.07;;;;;;;20.72;36.43;101051.02;125251;1103;101993;-80
2023/10/02 12:33:43;;;;;;;14.53;4.50;;;;;;;20.74;36.53;101043.90;124593;1102;102561;-78
2023/10/02 12:36:17;;;;;;;12.43;4.20;;;;;;;20.78;36.51;101046.58;125558;1099;104488;-74
2023/10/02 12:38:50;;;;;;;14.73;4.63;;;;;;;20.78;35.61;101051.91;124210;1102;104277;-75
2023/10/02 12:41:23;;;;;;;16.42;4.42;;;;;;;20.78;36.44;101040.36;124815;1102;104307;-78
2023/10/02 12:44:13;;;;;;;15.10;4.37;;;;;;;20.80;36.04;101047.49;125884;1102;104194;-79
2023/10/02 12:46:50;;;;;;;11.57;3.90;;;;;;;20.87;36.17;101039.51;126226;1100;101936;-81
2023/10/02 12:49:43;;;;;;;;;;;;;;;;;;;;;
2023/10/02 12:52:23;;;;;;;13.80;4.30;;;;;;;21.03;36.27;101040.41;125448;1100;101903;-77
2023/10/02 12:54:59;;;;;;;;;;;;;;;21.01;35.61;101035.07;125003;1102;102052;-79
2023/10/02 12:58:17;;;;;;;14.68;4.10;;;;;;;20.94;35.62;101039.52;125308;1102;104291;-78
2023/10/02 13:00:56;;;;;;;13.90;4.53;;;;;;;20.82;35.84;101056.38;126830;1102;101957;-82